createdAt,value
2018-12-05T00:01:00.816Z,1.8
2018-12-05T00:02:02.834Z,1.8
2018-12-05T00:03:04.870Z,1.9
2018-12-05T00:04:07.198Z,1.9
2018-12-05T00:05:09.227Z,1.9
2018-12-05T00:06:11.625Z,1.9
2018-12-05T00:07:13.938Z,1.9
2018-12-05T00:08:15.970Z,1.9
2018-12-05T00:09:18.279Z,1.9
2018-12-05T00:10:20.316Z,1.9
2018-12-05T00:11:22.360Z,1.9
2018-12-05T00:12:24.407Z,2
2018-12-05T00:13:26.813Z,1.9
2018-12-05T00:14:28.853Z,1.9
2018-12-05T00:15:30.940Z,2
2018-12-05T00:16:32.973Z,2
2018-12-05T00:17:35.007Z,2
2018-12-05T00:18:37.024Z,2
2018-12-05T00:19:39.071Z,2.1
2018-12-05T00:20:41.099Z,2.2
2018-12-05T00:21:43.406Z,2.1
2018-12-05T00:22:45.444Z,2.2
2018-12-05T00:23:47.490Z,2.1
2018-12-05T00:24:49.530Z,2.2
2018-12-05T00:25:51.560Z,2.2
2018-12-05T00:26:53.603Z,2.2
2018-12-05T00:27:55.621Z,2.3
2018-12-05T00:28:57.651Z,2.3
2018-12-05T00:29:59.686Z,2.3
2018-12-05T00:31:02.366Z,2.3
2018-12-05T00:32:04.396Z,2.3
2018-12-05T00:33:06.495Z,2.3
2018-12-05T00:34:08.518Z,2.3
2018-12-05T00:35:10.855Z,2.3
2018-12-05T00:36:12.877Z,2.2
2018-12-05T00:37:14.955Z,2.3
2018-12-05T00:38:17.021Z,2.3
2018-12-05T00:39:19.043Z,2.3
2018-12-05T00:40:21.084Z,2.3
2018-12-05T00:41:23.109Z,2.3
2018-12-05T00:42:25.137Z,2.3
2018-12-05T00:43:27.186Z,2.3
2018-12-05T00:44:29.206Z,2.3
2018-12-05T00:45:31.229Z,2.3
2018-12-05T00:46:33.525Z,2.3
2018-12-05T00:47:35.941Z,2.3
2018-12-05T00:48:37.966Z,2.3
2018-12-05T00:49:40.042Z,2.2
2018-12-05T00:50:42.075Z,2.3
2018-12-05T00:51:44.368Z,2.2
2018-12-05T00:52:46.788Z,2.2
2018-12-05T00:53:49.176Z,2.2
2018-12-05T00:54:51.224Z,2.2
2018-12-05T00:55:53.247Z,2.2
2018-12-05T00:56:55.757Z,2.2
2018-12-05T00:57:58.060Z,2.2
2018-12-05T00:59:00.091Z,2.2
2018-12-05T01:00:02.411Z,2.2
2018-12-05T01:01:04.708Z,2.1
2018-12-05T01:02:06.735Z,2.2
2018-12-05T01:03:08.840Z,2.1
2018-12-05T01:04:10.854Z,2.1
2018-12-05T01:05:13.272Z,2
2018-12-05T01:06:15.664Z,2
2018-12-05T01:07:17.694Z,2
2018-12-05T01:08:19.730Z,1.9
2018-12-05T01:09:21.759Z,1.9
2018-12-05T01:10:23.785Z,1.9
2018-12-05T01:11:25.806Z,1.9
2018-12-05T01:12:27.851Z,1.9
2018-12-05T01:13:29.897Z,1.8
2018-12-05T01:14:32.597Z,1.8
2018-12-05T01:15:34.658Z,1.8
2018-12-05T01:16:36.685Z,1.8
2018-12-05T01:17:38.714Z,1.8
2018-12-05T01:18:40.741Z,1.8
2018-12-05T01:19:43.149Z,1.8
2018-12-05T01:20:45.188Z,1.8
2018-12-05T01:21:47.235Z,1.8
2018-12-05T01:22:49.256Z,1.7
2018-12-05T01:23:51.368Z,1.7
2018-12-05T01:24:53.378Z,1.7
2018-12-05T01:25:55.413Z,1.8
2018-12-05T01:26:57.438Z,1.8
2018-12-05T01:27:59.841Z,1.7
2018-12-05T01:29:01.863Z,1.7
2018-12-05T01:30:03.902Z,1.7
2018-12-05T01:31:05.935Z,1.7
2018-12-05T01:32:07.966Z,1.6
2018-12-05T01:33:10.274Z,1.6
2018-12-05T01:34:12.285Z,1.5
2018-12-05T01:35:14.312Z,1.6
2018-12-05T01:36:16.345Z,1.6
2018-12-05T01:37:18.355Z,1.5
2018-12-05T01:38:20.394Z,1.5
2018-12-05T01:39:22.710Z,1.5
2018-12-05T01:40:24.814Z,1.6
2018-12-05T01:41:26.847Z,1.5
2018-12-05T01:42:28.868Z,1.6
2018-12-05T01:43:30.894Z,1.6
2018-12-05T01:44:32.994Z,1.5
2018-12-05T01:45:35.039Z,1.5
2018-12-05T01:46:37.349Z,1.6
2018-12-05T01:47:39.778Z,1.6
2018-12-05T01:48:42.100Z,1.5
2018-12-05T01:49:44.112Z,1.6
2018-12-05T01:50:46.148Z,1.6
2018-12-05T01:51:48.558Z,1.5
2018-12-05T01:52:50.592Z,1.5
2018-12-05T01:53:52.880Z,1.5
2018-12-05T01:54:55.247Z,1.5
2018-12-05T01:55:57.268Z,1.5
2018-12-05T01:56:59.304Z,1.5
2018-12-05T01:58:01.314Z,1.6
2018-12-05T01:59:03.353Z,1.6
2018-12-05T02:00:05.414Z,1.6
2018-12-05T02:01:07.432Z,1.6
2018-12-05T02:02:09.466Z,1.6
2018-12-05T02:03:11.505Z,1.6
2018-12-05T02:04:13.528Z,1.6
2018-12-05T02:05:15.552Z,1.6
2018-12-05T02:06:17.585Z,1.5
2018-12-05T02:07:19.608Z,1.6
2018-12-05T02:08:21.657Z,1.5
2018-12-05T02:09:23.692Z,1.5
2018-12-05T02:10:25.702Z,1.6
2018-12-05T02:11:28.126Z,1.6
2018-12-05T02:12:30.146Z,1.5
2018-12-05T02:13:32.179Z,1.6
2018-12-05T02:14:34.609Z,1.6
2018-12-05T02:15:36.635Z,1.6
2018-12-05T02:16:38.659Z,1.6
2018-12-05T02:17:40.681Z,1.6
2018-12-05T02:18:42.724Z,1.6
2018-12-05T02:19:44.758Z,1.6
2018-12-05T02:20:47.070Z,1.6
2018-12-05T02:21:49.098Z,1.6
2018-12-05T02:22:51.117Z,1.6
2018-12-05T02:23:53.154Z,1.6
2018-12-05T02:24:55.173Z,1.6
2018-12-05T02:25:57.201Z,1.6
2018-12-05T02:26:59.215Z,1.6
2018-12-05T02:28:01.347Z,1.6
2018-12-05T02:29:03.393Z,1.6
2018-12-05T02:30:05.496Z,1.7
2018-12-05T02:31:07.547Z,1.7
2018-12-05T02:32:09.875Z,1.7
2018-12-05T02:33:12.185Z,1.7
2018-12-05T02:34:14.238Z,1.7
2018-12-05T02:35:16.945Z,1.8
2018-12-05T02:36:19.241Z,1.7
2018-12-05T02:37:21.551Z,1.7
2018-12-05T02:38:23.601Z,1.8
2018-12-05T02:39:25.988Z,1.8
2018-12-05T02:40:28.299Z,1.8
2018-12-05T02:41:30.805Z,1.8
2018-12-05T02:42:32.839Z,1.8
2018-12-05T02:43:35.266Z,1.8
2018-12-05T02:44:37.854Z,1.9
2018-12-05T02:45:39.885Z,1.8
2018-12-05T02:46:41.930Z,1.9
2018-12-05T02:47:44.310Z,1.9
2018-12-05T02:48:46.345Z,1.9
2018-12-05T02:49:48.671Z,1.9
2018-12-05T02:50:50.719Z,2
2018-12-05T02:51:53.005Z,2
2018-12-05T02:52:55.327Z,2
2018-12-05T02:53:58.027Z,2
2018-12-05T02:55:00.051Z,2
2018-12-05T02:56:02.093Z,2
2018-12-05T02:57:04.385Z,2.1
2018-12-05T02:58:06.715Z,2.1
2018-12-05T02:59:09.010Z,2.1
2018-12-05T03:00:11.357Z,2.1
2018-12-05T03:01:13.384Z,2.1
2018-12-05T03:02:15.446Z,2.1
2018-12-05T03:03:17.513Z,2.1
2018-12-05T03:04:19.536Z,2.1
2018-12-05T03:05:21.583Z,2.1
2018-12-05T03:06:23.611Z,2.2
2018-12-05T03:07:25.628Z,2.2
2018-12-05T03:08:27.659Z,2.2
2018-12-05T03:09:29.700Z,2.2
2018-12-05T03:10:32.134Z,2.2
2018-12-05T03:11:34.155Z,2.2
2018-12-05T03:12:36.177Z,2.2
2018-12-05T03:13:38.509Z,2.2
2018-12-05T03:14:40.541Z,2.2
2018-12-05T03:15:42.557Z,2.2
2018-12-05T03:16:44.612Z,2.2
2018-12-05T03:17:46.926Z,2.2
2018-12-05T03:18:49.610Z,2.2
2018-12-05T03:19:51.922Z,2.3
2018-12-05T03:20:53.941Z,2.2
2018-12-05T03:21:55.975Z,2.2
2018-12-05T03:22:58.014Z,2.2
2018-12-05T03:24:00.048Z,2.2
2018-12-05T03:25:02.434Z,2.2
2018-12-05T03:26:04.774Z,2.2
2018-12-05T03:27:07.162Z,2.2
2018-12-05T03:28:09.577Z,2.2
2018-12-05T03:29:11.906Z,2.2
2018-12-05T03:30:14.618Z,2.1
2018-12-05T03:31:17.352Z,2.1
2018-12-05T03:32:19.989Z,2.1
2018-12-05T03:33:23.036Z,2
2018-12-05T03:34:25.789Z,2
2018-12-05T03:35:28.094Z,2
2018-12-05T03:36:30.441Z,2
2018-12-05T03:37:32.747Z,2
2018-12-05T03:38:34.788Z,1.9
2018-12-05T03:39:36.820Z,1.9
2018-12-05T03:40:39.125Z,1.9
2018-12-05T03:41:41.472Z,1.9
2018-12-05T03:42:43.817Z,1.9
2018-12-05T03:43:45.850Z,1.9
2018-12-05T03:44:47.890Z,1.7
2018-12-05T03:45:49.939Z,1.7
2018-12-05T03:46:52.246Z,1.7
2018-12-05T03:47:54.669Z,1.7
2018-12-05T03:48:56.692Z,1.7
2018-12-05T03:49:58.740Z,1.6
2018-12-05T03:51:00.763Z,1.7
2018-12-05T03:52:03.081Z,1.5
2018-12-05T03:53:05.848Z,1.6
2018-12-05T03:54:07.903Z,1.5
2018-12-05T03:55:09.955Z,1.5
2018-12-05T03:56:12.375Z,1.5
2018-12-05T03:57:14.695Z,1.5
2018-12-05T03:58:16.705Z,1.5
2018-12-05T03:59:18.754Z,1.5
2018-12-05T04:00:21.157Z,1.5
2018-12-05T04:01:23.183Z,1.5
2018-12-05T04:02:25.524Z,1.4
2018-12-05T04:03:27.553Z,1.4
2018-12-05T04:04:29.899Z,1.3
2018-12-05T04:05:31.927Z,1.4
2018-12-05T04:06:33.980Z,1.3
2018-12-05T04:07:35.997Z,1.4
2018-12-05T04:08:38.025Z,1.4
2018-12-05T04:09:40.351Z,1.4
2018-12-05T04:10:42.361Z,1.4
2018-12-05T04:11:44.421Z,1.3
2018-12-05T04:12:46.452Z,1.3
2018-12-05T04:13:48.468Z,1.2
2018-12-05T04:14:50.792Z,1.3
2018-12-05T04:15:53.132Z,1.2
2018-12-05T04:16:55.544Z,1.1
2018-12-05T04:17:57.861Z,1.1
2018-12-05T04:19:00.173Z,1.2
2018-12-05T04:20:02.205Z,1.2
2018-12-05T04:21:04.234Z,1.2
2018-12-05T04:22:06.648Z,1.1
2018-12-05T04:23:08.957Z,1.1
2018-12-05T04:24:11.000Z,1.1
2018-12-05T04:25:13.435Z,1.1
2018-12-05T04:26:15.480Z,1.1
2018-12-05T04:27:17.505Z,1
2018-12-05T04:28:19.539Z,1.1
2018-12-05T04:29:21.579Z,1.1
2018-12-05T04:30:23.623Z,1.1
2018-12-05T04:31:25.631Z,1.1
2018-12-05T04:32:27.671Z,1.1
2018-12-05T04:33:29.771Z,1.1
2018-12-05T04:34:31.810Z,1
2018-12-05T04:35:34.149Z,1.1
2018-12-05T04:36:36.837Z,1
2018-12-05T04:37:38.865Z,1
2018-12-05T04:38:41.175Z,1
2018-12-05T04:39:43.218Z,1
2018-12-05T04:40:45.231Z,0.9
2018-12-05T04:41:47.257Z,0.9
2018-12-05T04:42:49.311Z,1
2018-12-05T04:43:51.336Z,1
2018-12-05T04:44:53.761Z,1.1
2018-12-05T04:45:55.787Z,1.1
2018-12-05T04:46:57.811Z,1.1
2018-12-05T04:47:59.839Z,1
2018-12-05T04:49:01.883Z,1
2018-12-05T04:50:03.928Z,1
2018-12-05T04:51:05.975Z,1
2018-12-05T04:52:08.338Z,0.9
2018-12-05T04:53:10.650Z,0.9
2018-12-05T04:54:13.342Z,0.9
2018-12-05T04:55:15.375Z,0.9
2018-12-05T04:56:17.391Z,0.9
2018-12-05T04:57:19.829Z,0.9
2018-12-05T04:58:21.863Z,0.8
2018-12-05T04:59:23.888Z,0.8
2018-12-05T05:00:26.628Z,0.8
2018-12-05T05:01:29.209Z,0.9
2018-12-05T05:02:31.229Z,0.8
2018-12-05T05:03:33.250Z,0.9
2018-12-05T05:04:35.307Z,0.9
2018-12-05T05:05:37.618Z,0.8
2018-12-05T05:06:43.255Z,0.7
2018-12-05T05:07:45.572Z,0.8
2018-12-05T05:08:48.261Z,0.8
2018-12-05T05:09:50.303Z,0.8
2018-12-05T05:10:52.323Z,0.8
2018-12-05T05:11:54.429Z,0.9
2018-12-05T05:12:56.460Z,0.8
2018-12-05T05:13:58.817Z,0.8
2018-12-05T05:15:00.845Z,0.8
2018-12-05T05:16:03.147Z,0.8
2018-12-05T05:17:05.502Z,0.8
2018-12-05T05:18:07.523Z,0.8
2018-12-05T05:19:09.838Z,0.8
2018-12-05T05:20:13.844Z,0.8
2018-12-05T05:21:16.762Z,0.8
2018-12-05T05:22:19.065Z,0.8
2018-12-05T05:23:21.394Z,0.8
2018-12-05T05:24:23.689Z,0.8
2018-12-05T05:25:25.722Z,0.7
2018-12-05T05:26:27.776Z,0.7
2018-12-05T05:27:29.800Z,0.8
2018-12-05T05:28:31.823Z,0.8
2018-12-05T05:29:33.867Z,0.7
2018-12-05T05:30:35.892Z,0.8
2018-12-05T05:31:37.922Z,0.7
2018-12-05T05:32:39.949Z,0.7
2018-12-05T05:33:41.961Z,0.7
2018-12-05T05:34:43.995Z,0.7
2018-12-05T05:35:46.413Z,0.6
2018-12-05T05:36:48.453Z,0.6
2018-12-05T05:37:50.475Z,0.6
2018-12-05T05:38:52.578Z,0.6
2018-12-05T05:39:54.598Z,0.6
2018-12-05T05:40:57.194Z,0.6
2018-12-05T05:41:59.220Z,0.6
2018-12-05T05:43:01.543Z,0.6
2018-12-05T05:44:03.848Z,0.5
2018-12-05T05:45:06.166Z,0.6
2018-12-05T05:46:08.173Z,0.5
2018-12-05T05:47:10.213Z,0.5
2018-12-05T05:48:12.234Z,0.6
2018-12-05T05:49:14.250Z,0.5
2018-12-05T05:50:16.286Z,0.6
2018-12-05T05:51:18.297Z,0.6
2018-12-05T05:52:20.331Z,0.5
2018-12-05T05:53:22.746Z,0.6
2018-12-05T05:54:25.065Z,0.6
2018-12-05T05:55:27.079Z,0.6
2018-12-05T05:56:29.104Z,0.6
2018-12-05T05:57:31.130Z,0.6
2018-12-05T05:58:33.155Z,0.5
2018-12-05T05:59:35.184Z,0.5
2018-12-05T06:00:37.207Z,0.4
2018-12-05T06:01:39.220Z,0.5
2018-12-05T06:02:41.268Z,0.6
2018-12-05T06:03:43.287Z,0.5
2018-12-05T06:04:45.329Z,0.6
2018-12-05T06:05:47.355Z,0.5
2018-12-05T06:06:49.366Z,0.5
2018-12-05T06:07:51.407Z,0.5
2018-12-05T06:08:53.425Z,0.5
2018-12-05T06:09:55.469Z,0.5
2018-12-05T06:10:57.482Z,0.4
2018-12-05T06:11:59.515Z,0.4
2018-12-05T06:13:01.573Z,0.5
2018-12-05T06:14:03.868Z,0.4
2018-12-05T06:15:06.303Z,0.4
2018-12-05T06:16:08.655Z,0.4
2018-12-05T06:17:10.686Z,0.4
2018-12-05T06:18:12.713Z,0.4
2018-12-05T06:19:14.750Z,0.4
2018-12-05T06:20:16.766Z,0.3
2018-12-05T06:21:18.786Z,0.3
2018-12-05T06:22:21.221Z,0.3
2018-12-05T06:23:23.235Z,0.4
2018-12-05T06:24:25.284Z,0.4
2018-12-05T06:25:27.313Z,0.3
2018-12-05T06:26:29.373Z,0.3
2018-12-05T06:27:31.397Z,0.3
2018-12-05T06:28:33.434Z,0.3
2018-12-05T06:29:35.469Z,0.3
2018-12-05T06:30:37.498Z,0.4
2018-12-05T06:31:39.527Z,0.4
2018-12-05T06:32:41.546Z,0.3
2018-12-05T06:33:43.586Z,0.3
2018-12-05T06:34:45.628Z,0.3
2018-12-05T06:35:47.634Z,0.2
2018-12-05T06:36:49.662Z,0.3
2018-12-05T06:37:51.706Z,0.2
2018-12-05T06:38:53.764Z,0.2
2018-12-05T06:39:55.810Z,0.2
2018-12-05T06:40:58.113Z,0.2
2018-12-05T06:42:00.135Z,0.2
2018-12-05T06:43:02.153Z,0.2
2018-12-05T06:44:04.197Z,0.2
2018-12-05T06:45:06.222Z,0.2
2018-12-05T06:46:08.812Z,0.1
2018-12-05T06:47:10.848Z,0.1
2018-12-05T06:48:12.870Z,0.2
2018-12-05T06:49:15.192Z,0.2
2018-12-05T06:50:17.246Z,0.1
2018-12-05T06:51:19.293Z,0.1
2018-12-05T06:52:21.339Z,0.1
2018-12-05T06:53:24.252Z,0.1
2018-12-05T06:54:26.278Z,0
2018-12-05T06:55:28.311Z,0.1
2018-12-05T06:56:30.358Z,-0.1
2018-12-05T06:57:32.384Z,-0.1
2018-12-05T06:58:34.408Z,0
2018-12-05T06:59:36.729Z,0
2018-12-05T07:00:39.145Z,-0.1
2018-12-05T07:01:41.180Z,0
2018-12-05T07:02:43.214Z,-0.1
2018-12-05T07:03:45.332Z,-0.1
2018-12-05T07:04:47.359Z,-0.1
2018-12-05T07:05:49.377Z,-0.1
2018-12-05T07:06:51.797Z,0
2018-12-05T07:07:53.850Z,0
2018-12-05T07:08:55.861Z,-0.1
2018-12-05T07:09:57.900Z,0
2018-12-05T07:10:59.942Z,0
2018-12-05T07:12:02.036Z,0
2018-12-05T07:13:06.319Z,0
2018-12-05T07:14:08.356Z,0
2018-12-05T07:15:10.375Z,0
2018-12-05T07:16:12.391Z,0
2018-12-05T07:17:14.426Z,0
2018-12-05T07:18:16.442Z,0
2018-12-05T07:19:18.489Z,0
2018-12-05T07:20:20.532Z,0
2018-12-05T07:21:22.549Z,0
2018-12-05T07:22:24.584Z,0
2018-12-05T07:23:26.612Z,0
2018-12-05T07:24:28.647Z,0
2018-12-05T07:25:30.666Z,0
2018-12-05T07:26:32.697Z,0.1
2018-12-05T07:27:34.722Z,0.1
2018-12-05T07:28:36.736Z,0.1
2018-12-05T07:29:38.767Z,0
2018-12-05T07:30:40.789Z,0.1
2018-12-05T07:31:42.821Z,0.1
2018-12-05T07:32:44.868Z,0.1
2018-12-05T07:33:46.897Z,0.1
2018-12-05T07:34:48.916Z,0.1
2018-12-05T07:35:50.941Z,0.1
2018-12-05T07:36:52.966Z,0.1
2018-12-05T07:37:55.260Z,0.1
2018-12-05T07:38:57.378Z,0.1
2018-12-05T07:39:59.407Z,0.1
2018-12-05T07:41:01.511Z,0.1
2018-12-05T07:42:03.558Z,0.2
2018-12-05T07:43:05.578Z,0.2
2018-12-05T07:44:07.604Z,0.2
2018-12-05T07:45:10.021Z,0.2
2018-12-05T07:46:12.034Z,0.2
2018-12-05T07:47:14.064Z,0.2
2018-12-05T07:48:16.088Z,0.2
2018-12-05T07:49:18.117Z,0.2
2018-12-05T07:50:20.510Z,0.2
2018-12-05T07:51:22.548Z,0.3
2018-12-05T07:52:24.565Z,0.3
2018-12-05T07:53:26.590Z,0.3
2018-12-05T07:54:28.624Z,0.3
2018-12-05T07:55:30.643Z,0.3
2018-12-05T07:56:32.946Z,0.3
2018-12-05T07:57:34.980Z,0.3
2018-12-05T07:58:37.020Z,0.3
2018-12-05T07:59:39.326Z,0.3
2018-12-05T08:00:41.360Z,0.3
2018-12-05T08:01:43.462Z,0.3
2018-12-05T08:02:45.479Z,0.3
2018-12-05T08:03:47.509Z,0.3
2018-12-05T08:04:49.535Z,0.4
2018-12-05T08:05:51.548Z,0.3
2018-12-05T08:06:53.577Z,0.3
2018-12-05T08:07:55.608Z,0.3
2018-12-05T08:08:57.633Z,0.4
2018-12-05T08:09:59.666Z,0.6
2018-12-05T08:11:01.694Z,0.6
2018-12-05T08:12:03.711Z,0.6
2018-12-05T08:13:05.758Z,0.8
2018-12-05T08:14:33.540Z,0.8
2018-12-05T08:15:35.672Z,1
2018-12-05T08:16:37.775Z,1
2018-12-05T08:17:39.886Z,1
2018-12-05T08:18:42.053Z,1.1
2018-12-05T08:19:44.166Z,1.1
2018-12-05T08:20:46.282Z,1.2
2018-12-05T08:21:48.398Z,1.3
2018-12-05T08:22:50.810Z,1.4
2018-12-05T08:23:53.292Z,1.5
2018-12-05T08:24:55.412Z,1.5
2018-12-05T08:25:57.604Z,1.4
2018-12-05T08:26:59.994Z,1.5
2018-12-05T08:28:02.132Z,1.4
2018-12-05T08:29:04.231Z,1.6
2018-12-05T08:30:06.359Z,1.5
2018-12-05T08:31:08.471Z,1.7
2018-12-05T08:32:10.610Z,1.8
2018-12-05T08:33:12.719Z,1.7
2018-12-05T08:34:14.845Z,1.9
2018-12-05T08:35:16.968Z,2
2018-12-05T08:36:19.094Z,1.8
2018-12-05T08:37:21.227Z,2
2018-12-05T08:38:23.411Z,1.8
2018-12-05T08:39:25.520Z,2.1
2018-12-05T08:40:27.637Z,2.1
2018-12-05T08:41:30.433Z,2
2018-12-05T08:42:32.588Z,2.2
2018-12-05T08:43:34.786Z,2.4
2018-12-05T08:44:36.906Z,2.3
2018-12-05T08:45:39.020Z,2.3
2018-12-05T08:46:41.148Z,2.1
2018-12-05T08:47:43.280Z,2.2
2018-12-05T08:48:45.390Z,2.3
2018-12-05T08:49:47.515Z,2.6
2018-12-05T08:50:49.639Z,2.3
2018-12-05T08:51:51.764Z,2.5
2018-12-05T08:52:54.153Z,2.7
2018-12-05T08:53:56.277Z,2.7
2018-12-05T08:54:58.391Z,2.7
2018-12-05T08:56:00.518Z,2.8
2018-12-05T08:57:02.976Z,2.6
2018-12-05T08:58:05.423Z,2.6
2018-12-05T08:59:07.933Z,2.6
2018-12-05T09:00:10.043Z,2.8
2018-12-05T09:01:12.182Z,2.6
2018-12-05T09:02:14.288Z,2.9
2018-12-05T09:03:16.485Z,2.8
2018-12-05T09:04:18.593Z,2.8
2018-12-05T09:05:20.795Z,2.9
2018-12-05T09:06:22.911Z,2.9
2018-12-05T09:07:25.043Z,2.9
2018-12-05T09:08:27.169Z,3.4
2018-12-05T09:09:29.269Z,3.4
2018-12-05T09:10:31.396Z,3.3
2018-12-05T09:11:33.517Z,3.4
2018-12-05T09:12:35.627Z,3.8
2018-12-05T09:13:37.784Z,3.6
2018-12-05T09:14:39.932Z,3.5
2018-12-05T09:15:42.089Z,3.6
2018-12-05T09:16:44.789Z,3.6
2018-12-05T09:17:47.200Z,3.7
2018-12-05T09:18:49.309Z,3.8
2018-12-05T09:19:51.449Z,4
2018-12-05T09:20:53.593Z,4
2018-12-05T09:21:55.710Z,4.2
2018-12-05T09:22:57.855Z,4
2018-12-05T09:23:59.990Z,4
2018-12-05T09:25:02.121Z,4.1
2018-12-05T09:26:04.267Z,4
2018-12-05T09:27:06.468Z,4
2018-12-05T09:28:08.603Z,4.2
2018-12-05T09:29:10.719Z,4.3
2018-12-05T09:30:12.848Z,4.5
2018-12-05T09:31:14.994Z,4.6
2018-12-05T09:32:17.390Z,4.5
2018-12-05T09:33:19.508Z,4.8
2018-12-05T09:34:21.660Z,4.7
2018-12-05T09:35:23.777Z,5
2018-12-05T09:36:25.894Z,4.9
2018-12-05T09:37:28.009Z,4.8
2018-12-05T09:38:30.151Z,4.8
2018-12-05T09:39:32.563Z,5
2018-12-05T09:40:34.686Z,5.1
2018-12-05T09:41:36.820Z,4.9
2018-12-05T09:42:40.621Z,5.2
2018-12-05T09:43:42.750Z,4.8
2018-12-05T09:44:44.874Z,5.2
2018-12-05T09:45:46.986Z,5.1
2018-12-05T09:46:49.110Z,5
2018-12-05T09:47:51.268Z,5.2
2018-12-05T09:48:53.394Z,5
2018-12-05T09:49:55.542Z,5
2018-12-05T09:50:57.959Z,5.6
2018-12-05T09:52:00.074Z,5.7
2018-12-05T09:53:02.252Z,5.7
2018-12-05T09:54:04.387Z,5.3
2018-12-05T09:55:06.496Z,5.3
2018-12-05T09:56:08.622Z,6
2018-12-05T09:57:10.761Z,5.4
2018-12-05T09:58:13.277Z,5.3
2018-12-05T09:59:15.418Z,5.7
2018-12-05T10:00:17.549Z,6.3
2018-12-05T10:01:19.956Z,5.7
2018-12-05T10:02:22.382Z,5.8
2018-12-05T10:03:24.528Z,6.1
2018-12-05T10:04:26.652Z,5.6
2018-12-05T10:05:29.071Z,6.2
2018-12-05T10:06:31.215Z,6.5
2018-12-05T10:07:33.723Z,6.8
2018-12-05T10:08:35.873Z,7.2
2018-12-05T10:09:38.001Z,7.3
2018-12-05T10:10:40.147Z,7
2018-12-05T10:11:42.252Z,6.5
2018-12-05T10:12:44.391Z,7.1
2018-12-05T10:13:46.594Z,7.1
2018-12-05T10:14:48.725Z,6.9
2018-12-05T10:15:50.868Z,6.7
2018-12-05T10:16:52.988Z,6.4
2018-12-05T10:17:55.115Z,6.8
2018-12-05T10:18:57.250Z,6.8
2018-12-05T10:19:59.686Z,6.8
2018-12-05T10:21:01.810Z,6.8
2018-12-05T10:22:03.942Z,6.7
2018-12-05T10:23:08.359Z,6.6
2018-12-05T10:24:10.492Z,6.5
2018-12-05T10:25:12.636Z,6.8
2018-12-05T10:26:14.772Z,6.9
2018-12-05T10:27:16.887Z,6.5
2018-12-05T10:28:19.045Z,6.8
2018-12-05T10:29:21.174Z,6.6
2018-12-05T10:30:23.316Z,6.2
2018-12-05T10:31:25.450Z,6.4
2018-12-05T10:32:27.953Z,6.4
2018-12-05T10:33:30.091Z,6.4
2018-12-05T10:34:32.221Z,6.5
2018-12-05T10:35:34.387Z,7
2018-12-05T10:36:36.788Z,7.1
2018-12-05T10:37:38.927Z,6.8
2018-12-05T10:38:41.066Z,6.6
2018-12-05T10:39:43.188Z,7.1
2018-12-05T10:40:45.340Z,7.3
2018-12-05T10:41:47.463Z,6.8
2018-12-05T10:42:49.594Z,7.1
2018-12-05T10:43:51.726Z,7.2
2018-12-05T10:44:53.877Z,7.4
2018-12-05T10:45:56.000Z,7.3
2018-12-05T10:46:58.130Z,7.5
2018-12-05T10:48:00.263Z,7.3
2018-12-05T10:49:02.438Z,7.3
2018-12-05T10:50:04.661Z,7.1
2018-12-05T10:51:06.786Z,7.2
2018-12-05T10:52:08.917Z,7.2
2018-12-05T10:53:11.040Z,7.4
2018-12-05T10:54:13.253Z,7.6
2018-12-05T10:55:15.385Z,7.8
2018-12-05T10:56:17.792Z,7.6
2018-12-05T10:57:19.935Z,7.4
2018-12-05T10:58:22.463Z,7
2018-12-05T10:59:24.592Z,7.4
2018-12-05T11:00:26.707Z,7.5
2018-12-05T11:01:29.002Z,8
2018-12-05T11:02:31.171Z,7.7
2018-12-05T11:03:33.294Z,7.7
2018-12-05T11:04:35.438Z,7.3
2018-12-05T11:05:37.847Z,7.4
2018-12-05T11:06:40.264Z,7.3
2018-12-05T11:07:42.398Z,7.8
2018-12-05T11:08:44.824Z,8
2018-12-05T11:09:46.936Z,8
2018-12-05T11:10:49.079Z,7.1
2018-12-05T11:11:51.206Z,7.6
2018-12-05T11:12:53.318Z,8.1
2018-12-05T11:13:55.462Z,8.2
2018-12-05T11:14:57.585Z,8.2
2018-12-05T11:15:59.721Z,7.7
2018-12-05T11:17:01.846Z,8.1
2018-12-05T11:18:04.385Z,7.9
2018-12-05T11:19:06.890Z,8.2
2018-12-05T11:20:09.028Z,7.8
2018-12-05T11:21:11.168Z,7.6
2018-12-05T11:22:13.280Z,8.1
2018-12-05T11:23:15.416Z,7.8
2018-12-05T11:24:17.629Z,8
2018-12-05T11:25:19.778Z,8.4
2018-12-05T11:26:21.911Z,8.4
2018-12-05T11:27:24.036Z,8.1
2018-12-05T11:28:26.183Z,7.9
2018-12-05T11:29:28.583Z,7.4
2018-12-05T11:30:30.710Z,7.4
2018-12-05T11:31:32.849Z,7.9
2018-12-05T11:32:34.977Z,7.9
2018-12-05T11:33:37.148Z,8.3
2018-12-05T11:34:39.614Z,8.8
2018-12-05T11:35:41.743Z,8.7
2018-12-05T11:36:43.876Z,8.6
2018-12-05T11:37:46.019Z,8.6
2018-12-05T11:38:48.128Z,8.4
2018-12-05T11:39:50.547Z,7.5
2018-12-05T11:40:52.676Z,8
2018-12-05T11:41:54.845Z,8
2018-12-05T11:42:56.970Z,8.2
2018-12-05T11:43:59.113Z,8.6
2018-12-05T11:45:01.538Z,8.6
2018-12-05T11:46:04.252Z,8.2
2018-12-05T11:47:06.485Z,8.3
2018-12-05T11:48:08.602Z,8.4
2018-12-05T11:49:10.734Z,8.2
2018-12-05T11:50:12.869Z,7.7
2018-12-05T11:51:15.015Z,8
2018-12-05T11:52:17.149Z,8.2
2018-12-05T11:53:19.278Z,8
2018-12-05T11:54:21.411Z,7.7
2018-12-05T11:55:23.525Z,7.8
2018-12-05T11:56:25.778Z,7.5
2018-12-05T11:57:27.911Z,7.2
2018-12-05T11:58:30.430Z,7.4
2018-12-05T11:59:32.868Z,7.4
2018-12-05T12:00:35.012Z,7.3
2018-12-05T12:01:37.146Z,7.3
2018-12-05T12:02:39.315Z,7.2
2018-12-05T12:03:41.447Z,7.2
2018-12-05T12:04:43.992Z,7.5
2018-12-05T12:05:46.121Z,7.3
2018-12-05T12:06:48.245Z,7.3
2018-12-05T12:07:50.390Z,7.4
2018-12-05T12:08:52.512Z,7.4
2018-12-05T12:09:54.920Z,7.1
2018-12-05T12:10:57.141Z,7
2018-12-05T12:11:59.258Z,6.8
2018-12-05T12:13:01.396Z,6.7
2018-12-05T12:14:03.609Z,6.8
2018-12-05T12:15:06.155Z,6.8
2018-12-05T12:16:08.270Z,7
2018-12-05T12:17:10.431Z,6.9
2018-12-05T12:18:12.574Z,6.4
2018-12-05T12:19:14.711Z,6.6
2018-12-05T12:20:16.939Z,6.6
2018-12-05T12:21:19.073Z,6.6
2018-12-05T12:22:21.213Z,6.2
2018-12-05T12:23:23.355Z,6.4
2018-12-05T12:24:26.169Z,6.6
2018-12-05T12:25:28.293Z,6.7
2018-12-05T12:26:34.514Z,6.3
2018-12-05T12:27:36.655Z,6.6
2018-12-05T12:28:38.784Z,6.6
2018-12-05T12:29:40.922Z,6.4
2018-12-05T12:30:43.328Z,6.6
2018-12-05T12:31:45.748Z,6.7
2018-12-05T12:32:47.868Z,6.8
2018-12-05T12:33:50.035Z,6.7
2018-12-05T12:34:52.158Z,6.6
2018-12-05T12:35:54.302Z,6.7
2018-12-05T12:36:56.437Z,6.2
2018-12-05T12:37:58.837Z,6.1
2018-12-05T12:39:00.984Z,6
2018-12-05T12:40:03.122Z,6.2
2018-12-05T12:41:05.580Z,6.1
2018-12-05T12:42:07.712Z,6.1
2018-12-05T12:43:10.239Z,6.1
2018-12-05T12:44:12.365Z,6
2018-12-05T12:45:14.504Z,6.2
2018-12-05T12:46:16.622Z,6.2
2018-12-05T12:47:18.758Z,6.1
2018-12-05T12:48:20.951Z,6
2018-12-05T12:49:23.093Z,5.8
2018-12-05T12:50:25.200Z,5.8
2018-12-05T12:51:27.631Z,5.8
2018-12-05T12:52:29.782Z,5.9
2018-12-05T12:53:31.890Z,5.9
2018-12-05T12:54:34.026Z,5.9
2018-12-05T12:55:36.922Z,5.9
2018-12-05T12:56:39.440Z,5.9
2018-12-05T12:57:41.557Z,6
2018-12-05T12:58:43.693Z,6
2018-12-05T12:59:45.826Z,5.9
2018-12-05T13:00:47.970Z,5.9
2018-12-05T13:01:50.113Z,5.9
2018-12-05T13:02:52.228Z,5.8
2018-12-05T13:03:54.354Z,5.8
2018-12-05T13:04:56.490Z,5.9
2018-12-05T13:05:58.614Z,5.7
2018-12-05T13:07:00.734Z,5.7
2018-12-05T13:08:02.853Z,5.6
2018-12-05T13:09:04.968Z,5.6
2018-12-05T13:10:07.090Z,5.6
2018-12-05T13:11:10.917Z,5.7
2018-12-05T13:12:13.053Z,5.7
2018-12-05T13:13:15.742Z,5.6
2018-12-05T13:14:17.932Z,5.5
2018-12-05T13:15:20.053Z,5.4
2018-12-05T13:16:22.170Z,5.4
2018-12-05T13:17:24.288Z,5.3
2018-12-05T13:18:26.423Z,5.3
2018-12-05T13:19:28.535Z,5.2
2018-12-05T13:20:30.657Z,5.2
2018-12-05T13:21:32.782Z,5.2
2018-12-05T13:22:34.918Z,5.2
2018-12-05T13:23:37.032Z,5.1
2018-12-05T13:24:39.153Z,5.1
2018-12-05T13:25:41.289Z,5.1
2018-12-05T13:26:43.402Z,5
2018-12-05T13:27:45.528Z,5
2018-12-05T13:28:47.647Z,5
2018-12-05T13:29:50.169Z,5.1
2018-12-05T13:30:52.278Z,5
2018-12-05T13:31:54.413Z,4.9
2018-12-05T13:32:56.540Z,5
2018-12-05T13:33:58.657Z,5
2018-12-05T13:35:00.785Z,4.9
2018-12-05T13:36:03.183Z,4.9
2018-12-05T13:37:05.582Z,4.9
2018-12-05T13:38:07.786Z,4.9
2018-12-05T13:39:09.905Z,4.9
2018-12-05T13:40:12.022Z,4.8
2018-12-05T13:41:14.140Z,4.8
2018-12-05T13:42:16.342Z,4.8
2018-12-05T13:43:18.558Z,4.6
2018-12-05T13:44:20.691Z,4.6
2018-12-05T13:45:23.111Z,4.6
2018-12-05T13:46:31.229Z,4.6
2018-12-05T13:47:33.650Z,4.6
2018-12-05T13:48:35.760Z,4.6
2018-12-05T13:49:37.881Z,4.6
2018-12-05T13:50:40.013Z,4.5
2018-12-05T13:51:42.119Z,4.5
2018-12-05T13:52:44.248Z,4.5
2018-12-05T13:53:46.362Z,4.4
2018-12-05T13:54:48.492Z,4.4
2018-12-05T13:55:50.610Z,4.4
2018-12-05T13:56:53.009Z,4.4
2018-12-05T13:57:55.519Z,4.4
2018-12-05T13:58:57.650Z,4.4
2018-12-05T13:59:59.745Z,4.4
2018-12-05T14:01:02.267Z,4.3
2018-12-05T14:02:04.384Z,4.3
2018-12-05T14:03:06.516Z,4.3
2018-12-05T14:04:08.625Z,4.3
2018-12-05T14:05:10.749Z,4.3
2018-12-05T14:06:12.871Z,4.3
2018-12-05T14:07:14.983Z,4.3
2018-12-05T14:08:17.118Z,4.2
2018-12-05T14:09:19.230Z,4.2
2018-12-05T14:10:21.631Z,4.2
2018-12-05T14:11:23.763Z,4.2
2018-12-05T14:12:25.887Z,4.2
2018-12-05T14:13:28.000Z,4.2
2018-12-05T14:14:30.430Z,4.2
2018-12-05T14:15:32.553Z,4.1
2018-12-05T14:16:34.684Z,4.1
2018-12-05T14:17:36.820Z,4.1
2018-12-05T14:18:39.228Z,4.1
2018-12-05T14:19:41.338Z,4
2018-12-05T14:20:43.480Z,4.1
2018-12-05T14:21:45.605Z,4
2018-12-05T14:22:47.717Z,4
2018-12-05T14:23:49.847Z,3.9